Time;durP1;ratioP1;P1;durP2;ratioP2;P2;SDS_P1;SDS_P2;PMS_P1;PMS_P2;Temp;Humidity;BMP_temperature;BMP_pressure;BME280_temperature;BME280_humidity;BME280_pressure;Samples;Min_cycle;Max_cycle;Signal;HPM_P1;HPM_P2
2022/04/03 00:02:07;;;;;;;6.78;3.75;;;-1.70;99.90;;;;;;5037157;28;20500;-48
2022/04/03 00:04:34;;;;;;;6.50;3.60;;;-1.70;99.90;;;;;;5032519;28;20049;-49
2022/04/03 00:07:00;;;;;;;6.88;4.30;;;-1.70;99.90;;;;;;5034919;28;20053;-48
2022/04/03 00:09:26;;;;;;;6.50;4.00;;;-1.70;99.90;;;;;;5050247;28;20124;-48
2022/04/03 00:11:52;;;;;;;5.75;4.20;;;-1.70;99.90;;;;;;5028951;28;20052;-49
2022/04/03 00:14:18;;;;;;;6.75;4.68;;;-1.80;99.90;;;;;;5033075;28;20049;-50
2022/04/03 00:16:45;;;;;;;9.68;5.07;;;-1.80;99.90;;;;;;5035397;28;20049;-49
2022/04/03 00:19:11;;;;;;;7.05;4.80;;;-1.80;99.90;;;;;;5029064;28;20079;-49
2022/04/03 00:21:37;;;;;;;9.73;4.93;;;-1.80;99.90;;;;;;5034952;28;20509;-50
2022/04/03 00:24:03;;;;;;;7.45;4.28;;;-1.80;99.90;;;;;;5042331;28;20068;-48
2022/04/03 00:26:30;;;;;;;7.80;5.05;;;-1.80;99.90;;;;;;5024786;28;20056;-47
2022/04/03 00:28:56;;;;;;;8.52;5.35;;;-1.90;99.90;;;;;;5036047;28;20055;-49
2022/04/03 00:31:23;;;;;;;10.75;5.40;;;-1.90;99.90;;;;;;5027297;28;20535;-48
2022/04/03 00:33:49;;;;;;;10.13;5.40;;;-1.90;99.90;;;;;;5038840;28;20045;-48
2022/04/03 00:36:15;;;;;;;9.52;5.43;;;-1.90;99.90;;;;;;5051202;28;20068;-49
2022/04/03 00:38:41;;;;;;;10.52;5.80;;;-1.90;99.90;;;;;;5023582;28;20049;-47
2022/04/03 00:41:08;;;;;;;11.35;5.32;;;-1.90;99.90;;;;;;5016662;28;20444;-47
2022/04/03 00:43:34;;;;;;;8.50;5.18;;;-1.90;99.90;;;;;;5021201;28;20119;-48
2022/04/03 00:46:01;;;;;;;9.05;5.30;;;-1.90;99.90;;;;;;5039978;28;20049;-49
2022/04/03 00:48:28;;;;;;;9.40;5.05;;;-1.90;99.90;;;;;;5046661;28;20098;-57
2022/04/03 00:50:54;;;;;;;7.60;4.47;;;-1.90;99.90;;;;;;5063305;28;20119;-61
2022/04/03 00:53:20;;;;;;;6.72;3.92;;;-1.90;99.90;;;;;;5039567;28;20068;-57
2022/04/03 00:55:46;;;;;;;8.40;4.55;;;-2.00;99.90;;;;;;5046325;28;20057;-57
2022/04/03 00:58:13;;;;;;;8.85;4.45;;;-2.00;99.90;;;;;;5048941;28;20080;-57
2022/04/03 01:00:40;;;;;;;8.35;4.90;;;-2.00;99.90;;;;;;5012747;28;20135;-57
2022/04/03 01:03:06;;;;;;;7.82;5.10;;;-1.90;99.90;;;;;;5057688;28;20053;-57
2022/04/03 01:05:33;;;;;;;6.13;4.55;;;-1.90;99.90;;;;;;5039180;28;20061;-57
2022/04/03 01:08:00;;;;;;;8.90;5.32;;;-2.00;99.90;;;;;;5048278;28;20084;-57
2022/04/03 01:10:26;;;;;;;6.07;4.35;;;-1.90;99.90;;;;;;5047594;28;20128;-57
2022/04/03 01:12:53;;;;;;;8.52;5.35;;;-1.90;99.90;;;;;;5030290;28;20055;-58
2022/04/03 01:15:19;;;;;;;7.68;5.28;;;-1.90;99.90;;;;;;5042652;28;20045;-57
2022/04/03 01:17:45;;;;;;;9.43;4.80;;;-1.90;99.90;;;;;;5056863;28;20701;-57
2022/04/03 01:20:12;;;;;;;7.88;4.68;;;-2.00;99.90;;;;;;5023690;28;20037;-57
2022/04/03 01:22:38;;;;;;;9.07;4.95;;;-2.00;99.90;;;;;;5031835;28;20124;-57
2022/04/03 01:25:05;;;;;;;7.25;4.25;;;-2.00;99.90;;;;;;5052870;28;20124;-57
2022/04/03 01:27:31;;;;;;;5.85;4.15;;;-2.10;99.90;;;;;;5053379;28;20061;-50
2022/04/03 01:29:57;;;;;;;6.43;4.20;;;-2.10;99.90;;;;;;5029568;28;20045;-48
2022/04/03 01:32:24;;;;;;;9.20;4.63;;;-2.10;99.90;;;;;;5022781;28;20049;-48
2022/04/03 01:34:50;;;;;;;7.00;4.18;;;-2.20;99.90;;;;;;5035430;28;20053;-47
2022/04/03 01:37:16;;;;;;;7.32;4.28;;;-2.20;99.90;;;;;;5042133;28;20049;-48
2022/04/03 01:39:42;;;;;;;7.85;4.30;;;-2.10;99.90;;;;;;5043466;28;20056;-49
2022/04/03 01:42:09;;;;;;;9.00;4.57;;;-2.20;99.90;;;;;;5029631;28;20041;-48
2022/04/03 01:44:35;;;;;;;7.38;4.18;;;-2.20;99.90;;;;;;5042560;28;20080;-48
2022/04/03 01:47:02;;;;;;;6.97;4.00;;;-2.20;99.90;;;;;;5045012;28;20048;-57
2022/04/03 01:49:28;;;;;;;6.80;4.28;;;-2.20;99.90;;;;;;5039914;28;20041;-57
2022/04/03 01:51:54;;;;;;;5.85;4.28;;;-2.20;99.90;;;;;;5037258;28;20045;-57
2022/04/03 01:54:20;;;;;;;12.85;4.43;;;-2.20;99.90;;;;;;5045777;28;20676;-50
2022/04/03 01:56:47;;;;;;;6.15;3.97;;;-2.10;99.90;;;;;;5029082;28;20654;-49
2022/04/03 01:59:13;;;;;;;6.85;3.70;;;-2.10;99.90;;;;;;5039999;28;20055;-47
2022/04/03 02:01:39;;;;;;;6.53;3.83;;;-2.10;99.90;;;;;;5023169;28;20088;-49
2022/04/03 02:04:05;;;;;;;9.77;5.03;;;-2.10;99.90;;;;;;5045542;28;20055;-57
2022/04/03 02:06:31;;;;;;;5.57;4.13;;;-2.10;99.90;;;;;;5041821;28;20513;-48
2022/04/03 02:08:58;;;;;;;8.98;4.50;;;-2.20;99.90;;;;;;5009002;28;20091;-49
2022/04/03 02:11:24;;;;;;;9.77;4.63;;;-2.10;99.90;;;;;;5023522;28;20049;-49
2022/04/03 02:13:50;;;;;;;6.55;3.88;;;-2.10;99.90;;;;;;5039004;28;20115;-48
2022/04/03 02:16:17;;;;;;;7.18;3.92;;;-2.10;99.90;;;;;;5033562;28;20074;-46
2022/04/03 02:18:43;;;;;;;6.82;4.68;;;-2.10;99.90;;;;;;5029015;28;20053;-57
2022/04/03 02:21:09;;;;;;;5.88;3.72;;;-2.00;99.90;;;;;;5031146;28;20052;-57
2022/04/03 02:23:35;;;;;;;6.15;4.03;;;-2.00;99.90;;;;;;5030875;28;20045;-57
2022/04/03 02:26:01;;;;;;;5.28;3.55;;;-2.00;99.90;;;;;;5043082;28;20037;-57
2022/04/03 02:28:27;;;;;;;6.78;4.90;;;-2.00;99.90;;;;;;5039801;28;20052;-57
2022/04/03 02:30:53;;;;;;;7.65;4.03;;;-2.00;99.90;;;;;;5049731;28;20473;-57
2022/04/03 02:33:19;;;;;;;6.68;3.92;;;-2.00;99.90;;;;;;5050610;28;20529;-57
2022/04/03 02:35:45;;;;;;;5.43;3.90;;;-2.00;99.90;;;;;;5035464;28;20045;-57
2022/04/03 02:38:15;;;;;;;6.82;4.30;;;-2.00;99.90;;;;;;5044737;28;20041;-58
2022/04/03 02:40:45;;;;;;;6.00;4.43;;;-2.00;99.90;;;;;;5046969;28;20037;-57
2022/04/03 02:43:11;;;;;;;6.38;4.60;;;-2.00;99.90;;;;;;5029060;28;20057;-57
2022/04/03 02:45:39;;;;;;;7.95;4.45;;;-2.00;99.90;;;;;;5027465;28;20567;-57
2022/04/03 02:48:06;;;;;;;8.52;4.20;;;-2.10;99.90;;;;;;5030050;28;20179;-57
2022/04/03 02:50:32;;;;;;;7.43;4.70;;;-2.10;99.90;;;;;;5050596;28;20076;-57
2022/04/03 02:52:58;;;;;;;7.50;5.10;;;-2.10;99.90;;;;;;5046637;28;20045;-57
2022/04/03 02:55:25;;;;;;;9.63;5.32;;;-2.00;99.90;;;;;;5029249;28;20052;-57
2022/04/03 02:57:52;;;;;;;8.32;5.18;;;-2.10;99.90;;;;;;5035542;28;20041;-57
2022/04/03 03:00:19;;;;;;;7.53;4.63;;;-2.10;99.90;;;;;;5060154;28;20120;-57
2022/04/03 03:02:48;;;;;;;7.07;4.43;;;-2.10;99.90;;;;;;5046417;28;20083;-56
2022/04/03 03:05:15;;;;;;;6.50;5.15;;;-2.10;99.90;;;;;;5047077;28;20053;-58
2022/04/03 03:07:45;;;;;;;7.57;4.72;;;-2.10;99.90;;;;;;5045948;28;20507;-58
2022/04/03 03:10:17;;;;;;;7.43;5.60;;;-2.10;99.90;;;;;;5033218;28;20495;-57
2022/04/03 03:12:44;;;;;;;8.10;4.95;;;-2.10;99.90;;;;;;5032883;28;20284;-57
2022/04/03 03:15:12;;;;;;;8.95;5.40;;;-2.20;99.90;;;;;;5046480;28;20052;-57
2022/04/03 03:17:39;;;;;;;6.72;4.68;;;-2.20;99.90;;;;;;5049417;28;20279;-57
2022/04/03 03:20:06;;;;;;;6.07;4.75;;;-2.20;99.90;;;;;;5039166;28;20056;-57
2022/04/03 03:22:33;;;;;;;5.95;4.63;;;-2.20;99.90;;;;;;5027376;28;20090;-57
2022/04/03 03:25:00;;;;;;;6.05;4.72;;;-2.10;99.90;;;;;;5034940;28;20076;-57
2022/04/03 03:27:26;;;;;;;9.98;5.65;;;-2.10;99.90;;;;;;5042387;28;20055;-57
2022/04/03 03:29:53;;;;;;;7.78;5.13;;;-2.00;99.90;;;;;;5040734;28;20061;-57
2022/04/03 03:32:20;;;;;;;6.20;4.75;;;-1.80;99.90;;;;;;5041908;28;20063;-57
2022/04/03 03:34:46;;;;;;;6.53;5.22;;;-1.80;99.90;;;;;;5037339;28;20046;-57
2022/04/03 03:37:15;;;;;;;8.60;5.38;;;-1.60;99.90;;;;;;5055784;28;20205;-57
2022/04/03 03:39:43;;;;;;;15.52;5.18;;;-1.50;99.90;;;;;;5050034;28;20189;-57
2022/04/03 03:42:09;;;;;;;6.53;4.38;;;-1.30;99.90;;;;;;5057455;28;20061;-57
2022/04/03 03:44:35;;;;;;;6.35;4.57;;;-1.20;99.90;;;;;;5027089;28;20634;-57
2022/04/03 03:47:02;;;;;;;7.72;4.50;;;-1.10;99.90;;;;;;5040940;28;20500;-57
2022/04/03 03:49:28;;;;;;;6.78;3.80;;;-1.00;99.90;;;;;;5043109;28;20109;-57
2022/04/03 03:51:54;;;;;;;8.00;4.50;;;-0.90;99.90;;;;;;5040475;28;20029;-57
2022/04/03 03:54:21;;;;;;;7.20;4.07;;;-0.80;99.90;;;;;;5028594;28;20059;-57
2022/04/03 03:56:47;;;;;;;8.60;4.32;;;-0.70;99.90;;;;;;5050966;28;20323;-57
2022/04/03 03:59:14;;;;;;;8.05;4.72;;;-0.70;99.90;;;;;;5051466;28;20109;-57
2022/04/03 04:01:41;;;;;;;7.57;4.35;;;-0.60;99.90;;;;;;5052673;28;20439;-57
2022/04/03 04:04:08;;;;;;;7.72;4.88;;;-0.50;99.90;;;;;;5044481;28;20049;-56
2022/04/03 04:06:34;;;;;;;5.97;4.72;;;-0.50;99.90;;;;;;5028649;28;20437;-58
2022/04/03 04:09:01;;;;;;;6.00;4.45;;;-0.40;99.90;;;;;;5027445;28;20053;-57
2022/04/03 04:11:27;;;;;;;8.18;4.70;;;-0.40;99.90;;;;;;5031133;28;20045;-57
2022/04/03 04:13:53;;;;;;;5.30;4.40;;;-0.30;99.90;;;;;;5036143;28;20050;-57
2022/04/03 04:16:19;;;;;;;7.90;4.40;;;-0.30;99.90;;;;;;5042084;28;20413;-58
2022/04/03 04:18:46;;;;;;;7.65;4.88;;;-0.30;99.90;;;;;;5008587;28;20181;-57
2022/04/03 04:21:12;;;;;;;8.70;4.60;;;-0.20;99.90;;;;;;5054088;28;20555;-57
2022/04/03 04:23:39;;;;;;;5.85;4.28;;;-0.20;99.90;;;;;;5044287;28;20037;-57
2022/04/03 04:26:06;;;;;;;7.20;4.60;;;-0.20;99.90;;;;;;5045696;28;20040;-57
2022/04/03 04:28:32;;;;;;;6.72;4.28;;;-0.10;99.90;;;;;;5049084;28;20411;-57
2022/04/03 04:30:58;;;;;;;7.53;4.68;;;-0.10;99.90;;;;;;5047473;28;20159;-57
2022/04/03 04:33:25;;;;;;;6.60;4.97;;;-0.10;99.90;;;;;;5046871;28;20049;-57
2022/04/03 04:35:52;;;;;;;6.15;3.95;;;-0.10;99.90;;;;;;5049223;28;20455;-57
2022/04/03 04:38:18;;;;;;;7.78;4.85;;;-0.10;99.90;;;;;;5029656;28;20080;-57
2022/04/03 04:40:44;;;;;;;6.18;4.40;;;-0.10;99.90;;;;;;5036400;28;20060;-57
2022/04/03 04:43:11;;;;;;;8.45;4.72;;;0.00;99.90;;;;;;5051266;28;20053;-57
2022/04/03 04:45:37;;;;;;;7.18;4.68;;;0.00;99.90;;;;;;5062727;28;20516;-57
2022/04/03 04:48:04;;;;;;;7.55;5.82;;;0.00;99.90;;;;;;5047918;28;20059;-57
2022/04/03 04:50:31;;;;;;;8.55;5.05;;;0.00;99.90;;;;;;5062182;28;20045;-57
2022/04/03 04:52:58;;;;;;;8.40;5.32;;;0.00;99.90;;;;;;5049463;28;20055;-48
2022/04/03 04:55:26;;;;;;;6.97;5.35;;;0.10;99.90;;;;;;5051980;28;20674;-47
2022/04/03 04:57:55;;;;;;;6.90;4.78;;;0.00;99.90;;;;;;5040470;28;20123;-57
2022/04/03 05:00:23;;;;;;;7.85;5.38;;;0.00;99.90;;;;;;5044416;28;20057;-57
2022/04/03 05:02:50;;;;;;;7.63;5.72;;;-0.10;99.90;;;;;;5045203;28;20085;-57
2022/04/03 05:05:21;;;;;;;6.97;5.10;;;-0.10;99.90;;;;;;5039577;28;20049;-57
2022/04/03 05:07:53;;;;;;;7.13;5.35;;;-0.20;99.90;;;;;;5039005;28;20507;-57
2022/04/03 05:10:20;;;;;;;6.80;5.22;;;-0.20;99.90;;;;;;5031878;28;20041;-57
2022/04/03 05:12:50;;;;;;;6.82;4.65;;;-0.30;99.90;;;;;;5059138;28;20539;-57
2022/04/03 05:15:18;;;;;;;6.60;5.30;;;-0.40;99.90;;;;;;5062787;28;20398;-57
2022/04/03 05:17:45;;;;;;;7.72;5.55;;;-0.40;99.90;;;;;;5058360;28;20041;-57
2022/04/03 05:20:13;;;;;;;7.10;4.88;;;-0.40;99.90;;;;;;5053082;28;20532;-57
2022/04/03 05:22:41;;;;;;;6.68;5.38;;;-0.50;99.90;;;;;;5057441;28;20068;-57
2022/04/03 05:25:11;;;;;;;7.43;4.68;;;-0.60;99.90;;;;;;5079324;28;20407;-58
2022/04/03 05:27:38;;;;;;;7.75;4.97;;;-0.60;99.90;;;;;;5042156;28;20125;-58
2022/04/03 05:30:05;;;;;;;8.85;5.40;;;-0.70;99.90;;;;;;5027249;28;20281;-58
2022/04/03 05:32:32;;;;;;;9.98;5.30;;;-0.70;99.90;;;;;;5051061;28;20124;-58
2022/04/03 05:34:59;;;;;;;9.57;5.60;;;-0.70;99.90;;;;;;5047217;28;20980;-57
2022/04/03 05:37:26;;;;;;;8.02;4.95;;;-0.70;99.90;;;;;;5047399;28;20110;-58
2022/04/03 05:39:53;;;;;;;7.53;5.28;;;-0.70;99.90;;;;;;5041844;28;20120;-58
2022/04/03 05:42:20;;;;;;;11.05;5.75;;;-0.80;99.90;;;;;;5045949;28;20048;-57
2022/04/03 05:44:47;;;;;;;7.90;5.30;;;-0.80;99.90;;;;;;5046751;28;20064;-53
2022/04/03 05:47:17;;;;;;;7.28;5.22;;;-0.80;99.90;;;;;;5041532;28;20056;-52
2022/04/03 05:49:44;;;;;;;8.25;5.55;;;-0.80;99.90;;;;;;5021178;28;20510;-50
2022/04/03 05:52:10;;;;;;;6.03;5.35;;;-0.80;99.90;;;;;;5038095;28;20079;-51
2022/04/03 05:54:37;;;;;;;7.35;5.45;;;-0.80;99.90;;;;;;5040451;28;20641;-48
2022/04/03 05:57:04;;;;;;;7.88;5.70;;;-0.80;99.90;;;;;;5057503;28;20523;-51
2022/04/03 05:59:30;;;;;;;7.90;5.40;;;-0.80;99.90;;;;;;5043102;28;20047;-48
2022/04/03 06:01:57;;;;;;;6.88;5.07;;;-0.90;99.90;;;;;;5040796;28;20500;-51
2022/04/03 06:04:23;;;;;;;8.57;5.03;;;-0.80;99.90;;;;;;5043708;28;20156;-50
2022/04/03 06:06:50;;;;;;;6.28;4.68;;;-0.80;99.90;;;;;;5020153;28;20080;-48
2022/04/03 06:09:16;;;;;;;8.95;5.30;;;-0.80;99.90;;;;;;5036788;28;20073;-48
2022/04/03 06:11:42;;;;;;;7.50;5.15;;;-0.70;99.90;;;;;;5040301;28;20064;-50
2022/04/03 06:14:10;;;;;;;8.38;5.10;;;-0.50;99.90;;;;;;5007624;28;20044;-52
2022/04/03 06:16:36;;;;;;;6.53;4.85;;;-0.30;99.90;;;;;;5054080;28;20490;-49
2022/04/03 06:19:02;;;;;;;7.07;4.15;;;-0.30;99.90;;;;;;5022863;28;20064;-49
2022/04/03 06:21:28;;;;;;;7.05;4.43;;;-0.10;99.90;;;;;;5057128;28;20218;-58
2022/04/03 06:23:54;;;;;;;6.03;4.18;;;0.10;99.90;;;;;;5046570;28;20543;-58
2022/04/03 06:26:20;;;;;;;5.05;3.90;;;0.20;99.90;;;;;;5048489;28;20052;-58
2022/04/03 06:28:47;;;;;;;5.57;4.13;;;0.50;99.90;;;;;;5026595;28;20145;-58
2022/04/03 06:31:13;;;;;;;7.03;3.40;;;0.70;99.90;;;;;;5047862;28;20140;-58
2022/04/03 06:33:39;;;;;;;7.80;3.33;;;1.00;99.90;;;;;;5047359;28;20049;-59
2022/04/03 06:36:06;;;;;;;5.63;3.30;;;1.40;99.90;;;;;;5045482;28;20055;-58
2022/04/03 06:38:32;;;;;;;5.13;2.85;;;1.70;99.90;;;;;;5039179;28;20478;-53
2022/04/03 06:40:59;;;;;;;7.65;3.10;;;1.90;99.90;;;;;;5039588;28;20049;-50
2022/04/03 06:43:28;;;;;;;5.13;3.22;;;1.80;99.90;;;;;;5045720;28;20054;-50
2022/04/03 06:45:55;;;;;;;4.65;3.38;;;1.90;99.90;;;;;;5057839;28;20057;-51
2022/04/03 06:48:23;;;;;;;4.32;3.20;;;2.00;99.90;;;;;;5040202;28;20117;-49
2022/04/03 06:50:49;;;;;;;6.47;3.47;;;2.10;99.90;;;;;;5039823;28;20095;-54
2022/04/03 06:53:15;;;;;;;3.67;2.75;;;2.20;99.90;;;;;;5039544;28;20048;-52
2022/04/03 06:55:41;;;;;;;6.25;2.72;;;2.40;99.90;;;;;;5041555;28;20088;-54
2022/04/03 06:58:08;;;;;;;6.07;3.00;;;2.60;99.90;;;;;;5037807;28;20071;-55
2022/04/03 07:00:37;;;;;;;5.72;2.92;;;2.90;99.90;;;;;;5039950;28;20430;-54
2022/04/03 07:03:05;;;;;;;4.63;2.53;;;3.20;99.90;;;;;;5041275;28;20045;-56
2022/04/03 07:05:31;;;;;;;7.13;2.65;;;3.60;99.90;;;;;;5039029;28;20052;-55
2022/04/03 07:07:57;;;;;;;4.65;2.42;;;3.90;99.90;;;;;;5055540;28;20118;-54
2022/04/03 07:10:24;;;;;;;5.28;2.70;;;4.10;99.90;;;;;;5055080;28;20056;-59
2022/04/03 07:12:50;;;;;;;5.00;2.33;;;4.30;99.90;;;;;;5028253;28;20164;-58
2022/04/03 07:15:17;;;;;;;11.00;2.88;;;4.70;99.90;;;;;;5045775;28;20045;-58
2022/04/03 07:17:43;;;;;;;4.85;2.30;;;5.00;99.90;;;;;;5045964;28;20132;-59
2022/04/03 07:20:13;;;;;;;5.93;2.40;;;5.20;99.90;;;;;;5046821;28;20070;-59
2022/04/03 07:22:44;;;;;;;4.68;2.58;;;5.70;99.90;;;;;;5052604;28;20056;-56
2022/04/03 07:25:12;;;;;;;3.45;1.83;;;6.30;99.90;;;;;;5039052;28;20071;-56
2022/04/03 07:27:42;;;;;;;5.80;2.15;;;6.50;99.90;;;;;;5046553;28;20039;-56
2022/04/03 07:30:11;;;;;;;5.68;2.50;;;7.00;99.90;;;;;;5036299;28;20042;-58
2022/04/03 07:32:38;;;;;;;4.10;1.90;;;7.40;99.90;;;;;;5028116;28;20041;-56
2022/04/03 07:35:05;;;;;;;4.75;1.67;;;7.60;99.90;;;;;;5033355;28;20281;-57
2022/04/03 07:37:32;;;;;;;2.97;1.73;;;7.70;99.90;;;;;;5046765;28;20052;-56
2022/04/03 07:39:59;;;;;;;3.90;1.50;;;7.90;99.90;;;;;;5042527;28;20464;-56
2022/04/03 07:42:25;;;;;;;4.18;1.55;;;8.30;99.90;;;;;;5026209;28;20068;-57
2022/04/03 07:44:51;;;;;;;4.72;2.20;;;8.20;99.90;;;;;;5047123;28;20475;-59
2022/04/03 07:47:17;;;;;;;3.35;1.42;;;8.30;99.90;;;;;;5045318;28;20048;-59
2022/04/03 07:49:44;;;;;;;7.43;1.80;;;8.70;99.90;;;;;;5046038;28;20756;-57
2022/04/03 07:52:10;;;;;;;5.55;2.10;;;8.90;99.90;;;;;;5042757;28;20515;-56
2022/04/03 07:54:38;;;;;;;6.88;2.05;;;9.20;99.90;;;;;;5041474;28;20051;-53
2022/04/03 07:57:06;;;;;;;6.00;2.30;;;9.00;99.90;;;;;;5007414;28;20045;-54
2022/04/03 07:59:33;;;;;;;5.03;1.67;;;9.20;99.90;;;;;;5041425;28;20098;-55
2022/04/03 08:02:00;;;;;;;4.30;1.58;;;9.10;99.90;;;;;;5041533;28;20052;-54
2022/04/03 08:04:26;;;;;;;5.57;2.05;;;9.10;99.90;;;;;;5046016;28;20049;-53
2022/04/03 08:06:52;;;;;;;2.55;1.27;;;8.70;99.90;;;;;;5044230;28;20057;-54
2022/04/03 08:09:20;;;;;;;3.15;1.63;;;8.90;99.90;;;;;;5043999;28;20052;-53
2022/04/03 08:11:46;;;;;;;5.15;1.80;;;9.00;99.90;;;;;;5044378;28;20163;-54
2022/04/03 08:14:12;;;;;;;4.50;1.30;;;9.40;99.90;;;;;;5027501;28;20052;-54
2022/04/03 08:16:38;;;;;;;3.60;1.30;;;9.80;99.90;;;;;;5045514;28;20257;-53
2022/04/03 08:19:06;;;;;;;5.97;1.38;;;9.70;99.90;;;;;;5042856;28;20474;-56
2022/04/03 08:21:32;;;;;;;3.53;1.30;;;10.10;99.90;;;;;;5040803;28;20894;-55
2022/04/03 08:23:59;;;;;;;4.00;1.20;;;9.80;99.90;;;;;;5022821;28;20049;-54
2022/04/03 08:26:28;;;;;;;3.90;1.20;;;9.50;99.90;;;;;;5025184;28;20172;-54
2022/04/03 08:28:54;;;;;;;1.80;1.00;;;9.70;99.90;;;;;;5007405;28;20089;-54
2022/04/03 08:31:24;;;;;;;3.60;1.20;;;10.30;99.90;;;;;;5042587;28;20552;-53
2022/04/03 08:33:51;;;;;;;3.92;1.38;;;10.70;99.90;;;;;;5026890;28;20138;-54
2022/04/03 08:36:18;;;;;;;3.95;1.00;;;10.40;99.90;;;;;;5027039;28;20706;-55
2022/04/03 08:38:44;;;;;;;4.30;1.45;;;10.60;99.90;;;;;;5043784;28;20048;-55
2022/04/03 08:41:10;;;;;;;6.15;2.10;;;10.30;99.90;;;;;;5043259;28;20055;-55
2022/04/03 08:43:38;;;;;;;5.93;1.27;;;11.00;99.90;;;;;;5044001;28;20118;-56
2022/04/03 08:46:07;;;;;;;4.50;1.20;;;11.10;99.90;;;;;;5010283;28;20061;-55
2022/04/03 08:48:34;;;;;;;4.15;1.05;;;11.30;99.90;;;;;;5044828;28;20681;-55
2022/04/03 08:51:02;;;;;;;2.40;1.00;;;10.60;99.90;;;;;;5042676;28;20688;-55
2022/04/03 08:53:30;;;;;;;4.50;1.30;;;10.10;99.90;;;;;;5043131;28;20056;-53
2022/04/03 08:55:57;;;;;;;3.60;1.15;;;10.00;99.90;;;;;;5043072;28;20049;-54
2022/04/03 08:58:23;;;;;;;10.07;5.30;;;10.00;99.90;;;;;;5044802;28;20515;-54
2022/04/03 09:00:49;;;;;;;3.50;1.20;;;10.70;99.90;;;;;;5042836;28;20454;-54
2022/04/03 09:03:15;;;;;;;6.00;0.88;;;10.60;99.90;;;;;;5044520;28;20048;-55
2022/04/03 09:05:43;;;;;;;3.83;1.13;;;11.10;99.90;;;;;;5042970;28;20064;-54
2022/04/03 09:08:10;;;;;;;6.88;2.47;;;11.40;99.90;;;;;;5044172;28;20045;-55
2022/04/03 09:10:37;;;;;;;4.07;0.90;;;11.70;99.90;;;;;;5044624;28;20115;-52
2022/04/03 09:13:04;;;;;;;2.20;0.90;;;12.20;99.90;;;;;;5042841;28;20052;-54
2022/04/03 09:15:31;;;;;;;2.72;0.90;;;13.20;99.90;;;;;;5045599;28;20044;-59
2022/04/03 09:18:02;;;;;;;2.25;1.10;;;12.50;99.90;;;;;;5050830;28;20408;-58
2022/04/03 09:20:31;;;;;;;2.90;1.33;;;13.20;99.90;;;;;;5050195;28;20460;-59
2022/04/03 09:23:00;;;;;;;3.45;1.00;;;13.80;99.90;;;;;;5049213;28;20039;-58
2022/04/03 09:25:41;;;;;;;6.60;2.95;;;13.30;99.90;;;;;;5047588;28;20127;-59
2022/04/03 09:28:11;;;;;;;1.58;0.60;;;13.70;99.90;;;;;;5049445;28;20111;-59
2022/04/03 09:30:46;;;;;;;3.78;0.80;;;14.80;99.30;;;;;;5050740;28;20459;-59
2022/04/03 09:33:19;;;;;;;1.55;0.63;;;14.40;88.10;;;;;;5049397;28;20047;-59
2022/04/03 09:35:58;;;;;;;1.70;0.57;;;13.10;91.60;;;;;;5048675;28;20053;-59
2022/04/03 09:38:27;;;;;;;3.35;1.10;;;12.00;92.60;;;;;;5049407;28;20049;-59
2022/04/03 09:40:54;;;;;;;3.28;1.60;;;11.40;95.50;;;;;;5048925;28;20126;-57
2022/04/03 09:43:31;;;;;;;2.83;0.88;;;10.90;95.40;;;;;;5047456;28;20095;-58
2022/04/03 09:45:59;;;;;;;4.30;1.00;;;10.10;95.50;;;;;;5030443;28;20370;-58
2022/04/03 09:48:34;;;;;;;3.20;1.02;;;9.90;94.40;;;;;;5049266;28;20091;-58
2022/04/03 09:51:08;;;;;;;5.35;1.20;;;9.90;96.10;;;;;;5065449;28;20402;-58
2022/04/03 09:53:49;;;;;;;3.45;1.02;;;10.20;90.10;;;;;;5016524;28;20424;-59
2022/04/03 09:56:29;;;;;;;2.37;0.70;;;11.10;91.50;;;;;;5082879;28;20044;-59
2022/04/03 09:59:00;;;;;;;3.45;0.82;;;11.10;73.60;;;;;;5053582;28;20378;-59
2022/04/03 10:01:28;;;;;;;2.90;0.90;;;11.30;75.90;;;;;;5043716;28;20480;-54
2022/04/03 10:03:55;;;;;;;2.17;0.73;;;11.30;72.40;;;;;;5016722;28;20091;-55
2022/04/03 10:06:23;;;;;;;3.30;0.98;;;10.80;70.30;;;;;;5039158;28;20052;-53
2022/04/03 10:08:50;;;;;;;3.10;0.82;;;10.40;73.70;;;;;;5038153;28;20099;-54
2022/04/03 10:11:17;;;;;;;4.03;1.17;;;10.00;83.90;;;;;;5023393;28;20059;-54
2022/04/03 10:13:43;;;;;;;3.83;1.40;;;9.50;95.40;;;;;;5068510;28;20460;-52
2022/04/03 10:16:14;;;;;;;3.67;1.55;;;8.80;99.20;;;;;;5051496;28;20052;-54
2022/04/03 10:18:41;;;;;;;3.40;1.10;;;8.60;99.90;;;;;;5056972;28;20516;-53
2022/04/03 10:21:36;;;;;;;3.40;1.13;;;8.50;99.90;;;;;;5041505;28;20173;-54
2022/04/03 10:24:23;;;;;;;4.80;1.23;;;8.20;99.90;;;;;;5036009;28;20133;-53
2022/04/03 10:27:02;;;;;;;4.70;1.05;;;8.00;99.90;;;;;;5038647;28;20064;-60
2022/04/03 10:29:34;;;;;;;2.70;1.00;;;7.90;99.90;;;;;;5068966;28;20056;-58
2022/04/03 10:32:04;;;;;;;3.65;0.93;;;8.30;99.90;;;;;;5022869;28;20160;-53
2022/04/03 10:34:46;;;;;;;2.15;1.10;;;8.70;99.90;;;;;;5041842;28;20040;-52
2022/04/03 10:37:38;;;;;;;3.15;0.82;;;9.00;99.90;;;;;;5041031;28;20455;-54
2022/04/03 10:40:15;;;;;;;5.38;1.08;;;9.30;94.70;;;;;;5028268;28;20563;-55
2022/04/03 10:42:50;;;;;;;2.67;0.65;;;9.50;78.40;;;;;;5044350;28;20081;-52
2022/04/03 10:45:18;;;;;;;17.45;12.98;;;10.20;74.50;;;;;;5055610;28;20412;-55
2022/04/03 10:47:45;;;;;;;4.20;0.88;;;10.80;68.50;;;;;;5025850;28;20567;-55
2022/04/03 10:50:21;;;;;;;6.25;1.88;;;10.70;64.40;;;;;;5028876;28;20480;-54
2022/04/03 10:52:55;;;;;;;2.58;1.00;;;11.30;64.30;;;;;;5027792;28;20076;-53
2022/04/03 10:55:21;;;;;;;4.40;1.20;;;11.50;59.50;;;;;;5037931;28;20462;-54
2022/04/03 10:57:53;;;;;;;1.40;0.73;;;12.60;60.40;;;;;;5036778;28;20129;-54
2022/04/03 11:00:19;;;;;;;2.08;0.90;;;13.20;56.00;;;;;;5040354;28;20049;-55
2022/04/03 11:02:50;;;;;;;4.38;0.90;;;13.30;57.00;;;;;;5038218;28;20860;-54
2022/04/03 11:05:26;;;;;;;1.70;0.77;;;14.50;55.70;;;;;;5040830;28;20514;-54
2022/04/03 11:08:04;;;;;;;2.42;0.80;;;14.40;49.40;;;;;;5041447;28;20060;-53
2022/04/03 11:10:54;;;;;;;1.83;0.82;;;13.60;48.80;;;;;;5040223;28;20526;-54
2022/04/03 11:13:29;;;;;;;1.73;0.60;;;14.70;50.10;;;;;;5038065;28;20045;-55
2022/04/03 11:16:09;;;;;;;1.63;0.60;;;14.20;48.00;;;;;;5039262;28;20041;-55
2022/04/03 11:18:35;;;;;;;3.58;0.80;;;12.90;49.00;;;;;;5037926;28;20796;-54
2022/04/03 11:21:23;;;;;;;3.13;0.95;;;13.00;51.60;;;;;;5040296;28;20164;-54
2022/04/03 11:24:09;;;;;;;1.48;0.88;;;13.10;52.80;;;;;;5039353;28;20083;-53
2022/04/03 11:26:37;;;;;;;2.85;0.80;;;13.80;51.00;;;;;;5006317;28;20041;-54
2022/04/03 11:29:06;;;;;;;1.90;0.73;;;12.80;50.80;;;;;;5037671;28;20357;-53
2022/04/03 11:31:33;;;;;;;3.13;0.77;;;12.10;53.70;;;;;;5040444;28;20040;-58
2022/04/03 11:34:00;;;;;;;2.80;0.70;;;11.50;53.20;;;;;;5042133;28;20044;-58
2022/04/03 11:36:31;;;;;;;1.85;0.55;;;11.10;55.20;;;;;;5043619;28;20131;-58
2022/04/03 11:39:00;;;;;;;2.78;0.70;;;10.70;55.80;;;;;;5045258;28;20504;-57
2022/04/03 11:41:31;;;;;;;1.63;0.60;;;10.60;56.70;;;;;;5045189;28;20131;-59
2022/04/03 11:43:59;;;;;;;4.00;0.80;;;10.70;56.90;;;;;;5062209;28;20052;-57
2022/04/03 11:46:25;;;;;;;3.13;0.90;;;10.20;56.00;;;;;;5043125;28;20295;-54
2022/04/03 11:48:51;;;;;;;2.75;0.95;;;9.90;58.00;;;;;;5044496;28;20105;-57
2022/04/03 11:51:19;;;;;;;2.53;1.20;;;9.80;59.80;;;;;;5042831;28;20110;-57
2022/04/03 11:53:49;;;;;;;2.90;1.15;;;9.90;63.60;;;;;;5046278;28;20599;-57
2022/04/03 11:56:19;;;;;;;3.08;1.52;;;9.70;65.40;;;;;;5044350;28;20056;-54
2022/04/03 11:58:53;;;;;;;3.67;1.10;;;9.70;70.10;;;;;;5043588;28;20064;-54
2022/04/03 12:01:26;;;;;;;2.78;1.20;;;9.50;71.10;;;;;;5044551;28;20088;-57
2022/04/03 12:04:12;;;;;;;7.00;3.70;;;9.50;70.60;;;;;;5042624;28;20559;-57
2022/04/03 12:06:58;;;;;;;4.78;1.30;;;9.50;72.50;;;;;;5042316;28;20053;-57
2022/04/03 12:09:26;;;;;;;4.97;2.42;;;9.40;69.50;;;;;;5044866;28;20057;-57
2022/04/03 12:11:53;;;;;;;5.72;2.97;;;9.50;70.10;;;;;;5040698;28;20155;-57
2022/04/03 12:14:28;;;;;;;5.50;3.70;;;9.50;69.60;;;;;;5060775;28;20566;-57
2022/04/03 12:17:00;;;;;;;2.90;1.95;;;9.20;80.20;;;;;;5035614;28;20054;-57
2022/04/03 12:19:28;;;;;;;6.05;1.77;;;8.90;95.10;;;;;;5033354;28;20088;-57
2022/04/03 12:21:56;;;;;;;2.70;1.60;;;8.90;96.00;;;;;;5041388;28;20049;-57
2022/04/03 12:24:26;;;;;;;2.22;1.27;;;8.70;97.70;;;;;;5034197;28;20369;-51
2022/04/03 12:26:56;;;;;;;3.33;1.38;;;8.80;98.80;;;;;;5036484;28;20108;-48
2022/04/03 12:29:25;;;;;;;3.88;1.40;;;8.80;99.90;;;;;;5045889;28;20052;-52
2022/04/03 12:32:07;;;;;;;3.65;1.08;;;8.80;99.90;;;;;;5056556;28;20057;-50
2022/04/03 12:34:38;;;;;;;5.60;1.83;;;8.60;99.90;;;;;;5036110;28;21701;-52
2022/04/03 12:37:05;;;;;;;4.38;1.35;;;8.50;99.90;;;;;;5038328;28;20048;-53
2022/04/03 12:39:51;;;;;;;3.13;1.42;;;8.20;99.90;;;;;;5034826;28;20044;-52
2022/04/03 12:42:23;;;;;;;2.63;1.00;;;8.50;99.90;;;;;;5028768;28;20040;-53
2022/04/03 12:44:53;;;;;;;8.65;1.77;;;8.50;99.90;;;;;;5023255;28;20090;-53
2022/04/03 12:47:30;;;;;;;4.80;0.88;;;8.50;99.90;;;;;;5040196;28;20123;-52
2022/04/03 12:50:05;;;;;;;2.08;0.75;;;8.50;97.30;;;;;;5045314;28;21130;-49
2022/04/03 12:52:50;;;;;;;2.20;1.08;;;8.70;96.60;;;;;;5029894;28;21067;-53
2022/04/03 12:55:22;;;;;;;2.05;1.00;;;8.90;93.20;;;;;;5040897;28;20047;-56
2022/04/03 13:00:56;;;;;;;1.88;0.77;;;9.00;94.60;;;;;;5036536;28;20127;-57